Time;durP1;ratioP1;P1;durP2;ratioP2;P2;SDS_P1;SDS_P2;PMS_P1;PMS_P2;Temp;Humidity;BMP_temperature;BMP_pressure;BME280_temperature;BME280_humidity;BME280_pressure;Samples;Min_cycle;Max_cycle;Signal;HPM_P1;HPM_P2
2023/05/05 00:00:20;;;;;;;3.25;1.88;;;11.60;99.90;;;;;;4987860;28;20400;-85
2023/05/05 00:02:47;;;;;;;3.22;1.83;;;11.70;99.90;;;;;;5004737;28;20084;-87
2023/05/05 00:05:13;;;;;;;4.63;1.88;;;11.70;99.90;;;;;;5005654;28;20061;-85
2023/05/05 00:07:39;;;;;;;4.03;2.63;;;11.70;99.90;;;;;;5005673;28;20042;-84
2023/05/05 00:10:05;;;;;;;3.53;1.98;;;11.60;99.90;;;;;;5004042;28;20120;-82
2023/05/05 00:12:31;;;;;;;4.15;2.08;;;11.60;99.90;;;;;;5003968;28;20176;-84
2023/05/05 00:14:57;;;;;;;2.92;1.85;;;11.60;99.90;;;;;;5003780;28;20120;-86
2023/05/05 00:17:22;;;;;;;1.75;1.42;;;11.60;99.90;;;;;;5004521;28;20413;-84
2023/05/05 00:19:48;;;;;;;3.92;2.10;;;11.60;99.90;;;;;;5005300;28;20085;-87
2023/05/05 00:22:14;;;;;;;5.43;1.77;;;11.60;99.90;;;;;;5005062;28;20052;-84
2023/05/05 00:24:40;;;;;;;1.52;1.40;;;11.60;99.90;;;;;;5005342;28;20115;-85
2023/05/05 00:27:05;;;;;;;2.55;1.83;;;11.60;99.90;;;;;;5003987;28;20046;-87
2023/05/05 00:29:31;;;;;;;2.50;1.95;;;11.60;99.90;;;;;;5005164;28;20043;-83
2023/05/05 00:31:57;;;;;;;2.15;1.40;;;11.60;99.90;;;;;;5004657;28;20050;-86
2023/05/05 00:34:22;;;;;;;2.85;1.50;;;11.60;99.90;;;;;;5004369;28;20111;-84
2023/05/05 00:36:48;;;;;;;3.75;2.50;;;11.60;99.90;;;;;;5004837;28;20037;-84
2023/05/05 00:39:15;;;;;;;3.28;1.70;;;11.60;99.90;;;;;;5005028;28;20125;-86
2023/05/05 00:41:41;;;;;;;2.20;1.65;;;11.60;99.90;;;;;;5002955;28;20554;-86
2023/05/05 00:44:07;;;;;;;2.95;2.28;;;11.60;99.90;;;;;;5003525;28;20060;-86
2023/05/05 00:46:33;;;;;;;4.55;1.80;;;11.60;99.90;;;;;;5004002;28;20612;-84
2023/05/05 00:48:59;;;;;;;3.47;1.92;;;11.70;99.90;;;;;;5003193;28;20046;-86
2023/05/05 00:51:26;;;;;;;1.98;1.40;;;11.60;99.90;;;;;;5004424;28;20054;-87
2023/05/05 00:53:52;;;;;;;2.20;1.50;;;11.60;99.90;;;;;;5004836;28;20068;-85
2023/05/05 00:56:20;;;;;;;4.70;1.33;;;11.60;99.90;;;;;;5003477;28;20046;-88
2023/05/05 00:58:46;;;;;;;3.92;1.50;;;11.60;99.90;;;;;;5004324;28;20262;-84
2023/05/05 01:01:13;;;;;;;3.65;2.47;;;11.60;99.90;;;;;;5003385;28;20044;-84
2023/05/05 01:03:43;;;;;;;5.05;2.60;;;11.60;99.90;;;;;;5004094;28;20061;-86
2023/05/05 01:06:21;;;;;;;2.28;1.83;;;11.60;99.90;;;;;;5003733;28;20042;-82
2023/05/05 01:08:49;;;;;;;12.43;2.05;;;11.60;99.90;;;;;;5074044;22;20058;-87
2023/05/05 01:11:29;;;;;;;4.88;2.17;;;11.60;99.90;;;;;;5004053;28;20061;-85
2023/05/05 01:14:17;;;;;;;2.35;2.08;;;11.50;99.90;;;;;;5004205;28;20037;-88
2023/05/05 01:16:57;;;;;;;2.67;2.03;;;11.50;99.90;;;;;;5004002;28;20041;-85
2023/05/05 01:19:49;;;;;;;8.10;2.17;;;11.60;99.90;;;;;;5004254;28;20400;-86
2023/05/05 01:22:21;;;;;;;2.63;1.48;;;11.50;99.90;;;;;;5004404;28;20081;-86
2023/05/05 01:25:05;;;;;;;;;;;11.50;99.90;;;;;;5004824;28;20046;-86
2023/05/05 01:27:58;;;;;;;2.42;1.60;;;11.40;99.90;;;;;;5004499;28;19921;-85
2023/05/05 01:30:26;;;;;;;;;;;11.40;99.90;;;;;;5004292;28;20290;-83
2023/05/05 01:32:55;;;;;;;4.35;2.10;;;11.40;99.90;;;;;;5002793;28;20055;-87
2023/05/05 01:35:30;;;;;;;5.70;1.92;;;11.40;99.90;;;;;;5002204;28;20073;-88
2023/05/05 01:38:04;;;;;;;2.63;2.00;;;11.30;99.90;;;;;;5003562;28;20408;-86
2023/05/05 01:40:36;;;;;;;2.85;2.03;;;11.30;99.90;;;;;;5003120;28;20054;-85
2023/05/05 01:43:03;;;;;;;3.13;1.67;;;11.30;99.90;;;;;;5003718;28;20060;-86
2023/05/05 01:45:32;;;;;;;2.95;2.15;;;11.30;99.90;;;;;;5003912;28;20046;-85
2023/05/05 01:47:59;;;;;;;2.88;2.03;;;11.30;99.90;;;;;;5002365;28;20045;-81
2023/05/05 01:50:27;;;;;;;4.78;2.55;;;11.30;99.90;;;;;;5003594;28;20061;-86
2023/05/05 01:52:54;;;;;;;4.45;1.88;;;11.30;99.90;;;;;;5002539;28;20038;-84
2023/05/05 01:55:23;;;;;;;4.40;1.88;;;11.30;99.90;;;;;;5003078;28;20053;-83
2023/05/05 01:57:49;;;;;;;4.78;1.85;;;11.30;99.90;;;;;;5003851;28;20050;-85
2023/05/05 02:00:18;;;;;;;6.35;2.22;;;11.30;99.90;;;;;;5003524;28;20495;-85
2023/05/05 02:02:46;;;;;;;3.75;1.77;;;11.30;99.90;;;;;;5002002;28;20050;-83
2023/05/05 02:05:13;;;;;;;4.25;1.77;;;11.30;99.90;;;;;;5003422;28;20033;-86
2023/05/05 02:07:39;;;;;;;3.60;1.77;;;11.30;99.90;;;;;;5001884;28;20408;-84
2023/05/05 02:10:06;;;;;;;2.65;1.80;;;11.30;99.90;;;;;;5002943;28;20050;-84
2023/05/05 02:12:34;;;;;;;3.28;2.40;;;11.30;99.90;;;;;;4985947;28;20042;-86
2023/05/05 02:15:01;;;;;;;3.05;2.05;;;11.30;99.90;;;;;;5002150;28;20050;-84
2023/05/05 02:17:29;;;;;;;2.55;1.70;;;11.20;99.90;;;;;;5002668;28;20072;-86
2023/05/05 02:19:55;;;;;;;2.17;1.98;;;11.20;99.90;;;;;;5003674;28;20100;-87
2023/05/05 02:22:21;;;;;;;4.28;1.90;;;11.20;99.90;;;;;;5003915;28;20050;-84
2023/05/05 02:24:46;;;;;;;4.13;2.00;;;11.20;99.90;;;;;;5002964;28;20092;-86
2023/05/05 02:27:15;;;;;;;3.33;1.92;;;11.20;99.90;;;;;;5003573;28;20038;-84
2023/05/05 02:29:48;;;;;;;2.92;2.20;;;11.20;99.90;;;;;;4985831;28;20069;-84
2023/05/05 02:32:19;;;;;;;6.00;2.63;;;11.20;99.90;;;;;;5003931;28;20068;-84
2023/05/05 02:34:48;;;;;;;2.92;2.58;;;11.20;99.90;;;;;;5003904;28;20042;-86
2023/05/05 02:37:20;;;;;;;4.80;2.33;;;11.20;99.90;;;;;;5003323;28;20510;-87
2023/05/05 02:39:57;;;;;;;3.17;2.20;;;11.20;99.90;;;;;;5002580;28;20488;-86
2023/05/05 02:42:27;;;;;;;4.70;1.65;;;11.10;99.90;;;;;;5001934;28;20749;-85
2023/05/05 02:44:56;;;;;;;1.98;1.48;;;11.10;99.90;;;;;;5002310;28;20042;-82
2023/05/05 02:47:26;;;;;;;4.93;1.85;;;11.10;99.90;;;;;;5003630;28;20064;-84
2023/05/05 02:49:52;;;;;;;3.83;1.60;;;11.10;99.90;;;;;;5004603;28;20049;-84
2023/05/05 02:52:18;;;;;;;2.40;2.03;;;11.10;99.90;;;;;;5003799;28;20044;-86
2023/05/05 02:54:43;;;;;;;2.00;1.45;;;11.10;99.90;;;;;;5001213;28;20049;-83
2023/05/05 02:57:16;;;;;;;4.10;1.90;;;11.10;99.90;;;;;;4985913;28;20500;-86
2023/05/05 02:59:51;;;;;;;2.25;2.05;;;11.10;99.90;;;;;;5003728;28;20042;-84
2023/05/05 03:02:39;;;;;;;3.85;2.58;;;11.10;99.90;;;;;;5003361;28;20046;-86
2023/05/05 03:05:09;;;;;;;4.88;2.47;;;11.10;99.90;;;;;;5003201;28;20045;-86
2023/05/05 03:07:50;;;;;;;3.65;2.38;;;11.10;99.90;;;;;;5003039;28;20060;-83
2023/05/05 03:10:20;;;;;;;4.15;2.35;;;11.10;99.90;;;;;;5000993;28;20054;-86
2023/05/05 03:13:00;;;;;;;2.25;1.67;;;11.20;99.90;;;;;;5005005;28;20112;-86
2023/05/05 03:15:30;;;;;;;10.13;3.08;;;11.10;99.90;;;;;;5006032;28;20050;-86
2023/05/05 03:17:57;;;;;;;3.65;2.70;;;11.10;99.90;;;;;;5006754;28;20050;-86
2023/05/05 03:20:24;;;;;;;5.18;2.03;;;11.20;99.90;;;;;;5005873;28;20037;-84
2023/05/05 03:22:50;;;;;;;3.78;2.30;;;11.10;99.90;;;;;;4989642;28;20589;-85
2023/05/05 03:25:16;;;;;;;3.50;2.78;;;11.10;99.90;;;;;;5004635;28;20046;-86
2023/05/05 03:27:42;;;;;;;2.70;2.15;;;11.10;99.90;;;;;;5005416;28;20053;-85
2023/05/05 03:30:08;;;;;;;3.42;2.20;;;11.10;99.90;;;;;;5006064;28;20038;-82
2023/05/05 03:32:33;;;;;;;4.72;3.10;;;11.10;99.90;;;;;;5006808;28;20133;-85
2023/05/05 03:34:59;;;;;;;8.20;3.22;;;11.00;99.90;;;;;;5007441;28;20172;-86
2023/05/05 03:37:25;;;;;;;3.47;2.13;;;10.90;99.90;;;;;;5007466;28;20136;-85
2023/05/05 03:39:50;;;;;;;4.03;2.10;;;10.80;99.90;;;;;;5006320;28;20037;-85
2023/05/05 03:42:16;;;;;;;5.80;2.70;;;10.80;99.90;;;;;;5006636;28;20455;-85
2023/05/05 03:44:42;;;;;;;5.50;2.72;;;10.70;99.90;;;;;;5006457;28;20633;-85
2023/05/05 03:47:08;;;;;;;5.68;2.55;;;10.70;99.90;;;;;;5006589;28;20070;-86
2023/05/05 03:49:33;;;;;;;4.38;2.60;;;10.60;99.90;;;;;;5006730;28;20523;-82
2023/05/05 03:51:59;;;;;;;3.20;2.90;;;10.60;99.90;;;;;;5005078;28;20571;-86
2023/05/05 03:54:25;;;;;;;5.75;2.80;;;10.60;99.90;;;;;;5006812;28;20046;-85
2023/05/05 03:56:50;;;;;;;6.57;3.55;;;10.60;99.90;;;;;;5004952;28;20038;-82
2023/05/05 03:59:16;;;;;;;5.80;3.35;;;10.60;99.90;;;;;;5004893;28;20050;-85
2023/05/05 04:01:43;;;;;;;7.47;3.22;;;10.60;99.90;;;;;;5005610;28;20265;-84
2023/05/05 04:04:09;;;;;;;6.95;3.38;;;10.60;99.90;;;;;;5006948;28;20053;-86
2023/05/05 04:06:35;;;;;;;5.43;3.05;;;10.60;99.90;;;;;;5004725;28;20507;-85
2023/05/05 04:09:00;;;;;;;6.22;3.03;;;10.60;99.90;;;;;;5005882;28;20167;-86
2023/05/05 04:11:26;;;;;;;4.45;3.05;;;10.60;99.90;;;;;;5006641;28;20050;-86
2023/05/05 04:13:52;;;;;;;5.70;3.35;;;10.60;99.90;;;;;;5006363;28;20046;-85
2023/05/05 04:16:17;;;;;;;4.57;2.65;;;10.60;99.90;;;;;;5005002;28;20049;-86
2023/05/05 04:18:43;;;;;;;7.00;3.42;;;10.60;99.90;;;;;;5004809;28;20073;-84
2023/05/05 04:21:08;;;;;;;5.65;2.35;;;10.60;99.90;;;;;;5005899;28;20045;-85
2023/05/05 04:23:34;;;;;;;8.52;3.85;;;10.60;99.90;;;;;;5005529;28;20392;-85
2023/05/05 04:25:59;;;;;;;3.95;2.85;;;10.50;99.90;;;;;;4987874;28;20555;-84
2023/05/05 04:28:25;;;;;;;5.43;3.25;;;10.60;99.90;;;;;;4988195;28;20084;-85
2023/05/05 04:30:51;;;;;;;5.70;2.55;;;10.50;99.90;;;;;;5004670;28;20203;-85
2023/05/05 04:33:16;;;;;;;5.18;2.67;;;10.50;99.90;;;;;;5005538;28;20400;-86
2023/05/05 04:35:42;;;;;;;6.18;3.13;;;10.50;99.90;;;;;;5004131;28;20046;-82
2023/05/05 04:38:07;;;;;;;8.15;2.85;;;10.50;99.90;;;;;;5006007;28;20053;-86
2023/05/05 04:40:37;;;;;;;6.40;2.65;;;10.50;99.90;;;;;;5003101;28;20134;-86
2023/05/05 04:43:04;;;;;;;5.95;3.20;;;10.50;99.90;;;;;;5005925;28;20053;-86
2023/05/05 04:45:29;;;;;;;5.47;2.95;;;10.50;99.90;;;;;;5005806;28;20042;-82
2023/05/05 04:47:55;;;;;;;3.50;2.92;;;10.50;99.90;;;;;;5005180;28;20532;-85
2023/05/05 04:50:21;;;;;;;5.20;3.10;;;10.50;99.90;;;;;;5004377;28;20041;-84
2023/05/05 04:52:47;;;;;;;4.15;2.75;;;10.50;99.90;;;;;;5004924;28;20050;-86
2023/05/05 04:55:12;;;;;;;5.80;3.17;;;10.50;99.90;;;;;;5004538;28;20045;-84
2023/05/05 04:57:38;;;;;;;4.30;3.15;;;10.50;99.90;;;;;;5004799;28;20049;-87
2023/05/05 05:00:05;;;;;;;8.90;3.67;;;10.50;99.90;;;;;;5004863;28;20125;-85
2023/05/05 05:02:30;;;;;;;5.47;3.03;;;10.50;99.90;;;;;;5005598;28;20052;-84
2023/05/05 05:04:56;;;;;;;5.32;3.03;;;10.50;99.90;;;;;;5003357;28;20038;-85
2023/05/05 05:07:22;;;;;;;6.20;3.15;;;10.50;99.90;;;;;;5004687;28;20054;-85
2023/05/05 05:09:48;;;;;;;4.75;3.15;;;10.50;99.90;;;;;;5003417;28;20056;-86
2023/05/05 05:12:13;;;;;;;7.38;2.97;;;10.40;99.90;;;;;;5003163;28;20045;-86
2023/05/05 05:14:39;;;;;;;5.05;2.53;;;10.40;99.90;;;;;;5005030;28;20084;-86
2023/05/05 05:17:05;;;;;;;5.43;2.92;;;10.40;99.90;;;;;;5004347;28;20362;-84
2023/05/05 05:19:31;;;;;;;5.05;3.53;;;10.30;99.90;;;;;;5004712;28;20045;-86
2023/05/05 05:21:57;;;;;;;4.45;3.70;;;10.40;99.90;;;;;;5003429;28;20041;-86
2023/05/05 05:24:24;;;;;;;4.93;3.60;;;10.40;99.90;;;;;;5003693;28;20041;-85
2023/05/05 05:26:50;;;;;;;5.20;3.08;;;10.40;99.90;;;;;;5002935;28;20050;-86
2023/05/05 05:29:15;;;;;;;6.13;3.92;;;10.40;99.90;;;;;;5004371;28;20038;-85
2023/05/05 05:31:41;;;;;;;5.15;3.42;;;10.40;99.90;;;;;;5004403;28;20050;-86
2023/05/05 05:34:06;;;;;;;4.22;3.22;;;10.40;99.90;;;;;;5002323;28;20041;-87
2023/05/05 05:36:32;;;;;;;6.55;2.97;;;10.40;99.90;;;;;;5004239;28;20049;-82
2023/05/05 05:38:58;;;;;;;6.95;3.40;;;10.40;99.90;;;;;;5004495;28;20420;-82
2023/05/05 05:41:24;;;;;;;5.53;3.13;;;10.30;99.90;;;;;;5001655;28;20030;-86
2023/05/05 05:43:49;;;;;;;4.22;2.95;;;10.30;99.90;;;;;;5003809;28;20042;-87
2023/05/05 05:46:15;;;;;;;4.35;2.88;;;10.30;99.90;;;;;;5003994;28;20057;-82
2023/05/05 05:48:40;;;;;;;3.78;2.95;;;10.30;99.90;;;;;;5002571;28;20495;-85
2023/05/05 05:51:06;;;;;;;11.00;2.80;;;10.30;99.90;;;;;;5002532;28;20056;-86
2023/05/05 05:53:32;;;;;;;6.35;3.35;;;10.30;99.90;;;;;;5004952;28;20038;-85
2023/05/05 05:55:57;;;;;;;6.00;3.88;;;10.30;99.90;;;;;;5001224;28;20073;-87
2023/05/05 05:58:23;;;;;;;5.82;3.45;;;10.30;99.90;;;;;;5002480;28;20432;-85
2023/05/05 06:00:49;;;;;;;7.10;4.03;;;10.40;99.90;;;;;;5003916;28;20042;-82
2023/05/05 06:03:14;;;;;;;9.27;4.15;;;10.40;99.90;;;;;;5003586;28;20495;-85
2023/05/05 06:05:40;;;;;;;5.43;3.72;;;10.50;99.90;;;;;;5003616;28;20053;-85
2023/05/05 06:08:06;;;;;;;7.15;3.97;;;10.50;99.90;;;;;;5003237;28;20046;-81
2023/05/05 06:10:32;;;;;;;6.30;4.03;;;10.60;99.90;;;;;;5001708;28;20085;-85
2023/05/05 06:12:57;;;;;;;5.10;3.75;;;10.70;99.90;;;;;;5003606;28;20073;-86
2023/05/05 06:15:24;;;;;;;6.43;3.40;;;10.70;99.90;;;;;;5003454;28;20037;-82
2023/05/05 06:17:50;;;;;;;6.03;3.42;;;10.80;99.90;;;;;;5002038;28;20050;-86
2023/05/05 06:20:15;;;;;;;6.85;3.95;;;10.80;99.90;;;;;;5002897;28;20045;-83
2023/05/05 06:22:41;;;;;;;4.15;3.45;;;10.90;99.90;;;;;;5003776;28;20219;-85
2023/05/05 06:25:07;;;;;;;6.07;3.95;;;10.90;99.90;;;;;;5002178;28;20038;-86
2023/05/05 06:27:33;;;;;;;5.60;3.75;;;10.90;99.90;;;;;;5002714;28;20501;-84
2023/05/05 06:29:58;;;;;;;6.60;3.65;;;11.00;99.90;;;;;;5003227;28;20096;-86
2023/05/05 06:32:24;;;;;;;6.97;4.03;;;11.00;99.90;;;;;;5002694;28;20576;-83
2023/05/05 06:34:49;;;;;;;4.95;3.90;;;11.00;99.90;;;;;;5003412;28;20550;-85
2023/05/05 06:37:15;;;;;;;7.90;3.97;;;11.10;99.90;;;;;;5001172;28;20397;-86
2023/05/05 06:39:41;;;;;;;8.80;3.63;;;11.10;99.90;;;;;;5002273;28;20192;-85
2023/05/05 06:42:06;;;;;;;7.47;5.22;;;11.10;99.90;;;;;;5002023;28;20034;-82
2023/05/05 06:44:33;;;;;;;6.03;4.03;;;11.20;99.90;;;;;;5003414;28;20551;-83
2023/05/05 06:46:59;;;;;;;7.05;3.72;;;11.20;99.90;;;;;;5003616;28;20050;-81
2023/05/05 06:49:24;;;;;;;6.80;3.55;;;11.20;99.90;;;;;;5006659;28;20519;-85
2023/05/05 06:51:50;;;;;;;5.72;4.05;;;11.30;99.90;;;;;;5007508;28;20037;-84
2023/05/05 06:54:16;;;;;;;5.95;4.07;;;11.30;99.90;;;;;;5005237;28;20587;-82
2023/05/05 06:56:41;;;;;;;7.40;4.75;;;11.40;99.90;;;;;;5006742;28;20069;-84
2023/05/05 06:59:07;;;;;;;7.05;4.47;;;11.50;99.90;;;;;;5007063;28;20049;-86
2023/05/05 07:01:32;;;;;;;8.50;5.45;;;11.50;99.90;;;;;;5005762;28;20033;-82
2023/05/05 07:03:58;;;;;;;7.18;4.95;;;11.50;99.90;;;;;;5006835;28;20408;-86
2023/05/05 07:06:23;;;;;;;7.78;4.15;;;11.50;99.90;;;;;;5006018;28;20045;-84
2023/05/05 07:08:49;;;;;;;8.75;4.43;;;11.60;99.90;;;;;;5006051;28;20349;-85
2023/05/05 07:11:15;;;;;;;8.05;4.85;;;11.60;99.90;;;;;;5005205;28;20042;-86
2023/05/05 07:13:40;;;;;;;8.73;5.22;;;11.60;99.90;;;;;;5006657;28;20073;-84
2023/05/05 07:16:06;;;;;;;8.60;4.80;;;11.70;99.90;;;;;;5006493;28;20045;-82
2023/05/05 07:18:32;;;;;;;9.57;4.90;;;11.70;99.90;;;;;;4988579;28;20724;-83
2023/05/05 07:20:57;;;;;;;8.52;4.30;;;11.80;99.90;;;;;;5005224;28;20420;-86
2023/05/05 07:23:23;;;;;;;9.75;5.45;;;11.80;99.90;;;;;;5004272;28;20046;-82
2023/05/05 07:25:49;;;;;;;7.88;5.38;;;11.90;99.90;;;;;;5005038;28;20759;-84
2023/05/05 07:28:15;;;;;;;7.60;4.57;;;12.00;99.90;;;;;;5006025;28;20560;-87
2023/05/05 07:30:40;;;;;;;14.15;6.53;;;12.10;99.90;;;;;;5006277;28;20133;-86
2023/05/05 07:33:06;;;;;;;9.38;5.40;;;12.30;99.90;;;;;;5006065;28;20496;-86
2023/05/05 07:35:32;;;;;;;9.95;6.03;;;12.40;99.90;;;;;;5005979;28;20054;-84
2023/05/05 07:37:57;;;;;;;7.03;5.00;;;12.50;99.90;;;;;;5005942;28;20053;-86
2023/05/05 07:40:23;;;;;;;9.98;5.55;;;12.60;99.90;;;;;;5004267;28;20330;-85
2023/05/05 07:42:48;;;;;;;8.27;5.15;;;12.70;99.90;;;;;;5005109;28;20073;-85
2023/05/05 07:45:14;;;;;;;10.55;6.20;;;12.70;99.90;;;;;;5004589;28;20443;-86
2023/05/05 07:47:40;;;;;;;11.07;5.32;;;12.80;99.90;;;;;;5006029;28;20045;-81
2023/05/05 07:50:06;;;;;;;10.07;5.63;;;12.90;99.90;;;;;;5006604;28;20060;-86
2023/05/05 07:52:31;;;;;;;14.52;6.15;;;12.80;99.90;;;;;;5005427;28;20042;-85
2023/05/05 07:54:57;;;;;;;9.30;6.38;;;12.90;99.90;;;;;;5004826;28;20042;-85
2023/05/05 07:57:23;;;;;;;9.80;6.13;;;12.90;99.90;;;;;;5004037;28;20077;-81
2023/05/05 07:59:48;;;;;;;14.23;5.60;;;13.00;99.90;;;;;;5003363;28;20145;-85
2023/05/05 08:02:14;;;;;;;13.15;6.78;;;13.10;99.90;;;;;;5005255;28;20067;-86
2023/05/05 08:04:40;;;;;;;10.80;5.97;;;13.20;99.90;;;;;;5005867;28;20042;-84
2023/05/05 08:07:06;;;;;;;10.80;6.05;;;13.30;99.90;;;;;;5005693;28;20054;-86
2023/05/05 08:09:33;;;;;;;13.43;6.22;;;13.40;99.90;;;;;;5004072;28;20600;-84
2023/05/05 08:12:00;;;;;;;12.32;7.97;;;13.40;99.90;;;;;;5004273;28;20334;-84
2023/05/05 08:14:25;;;;;;;13.27;7.45;;;13.50;99.90;;;;;;5004329;28;20073;-86
2023/05/05 08:16:51;;;;;;;14.80;7.30;;;13.60;99.90;;;;;;5005314;28;20038;-83
2023/05/05 08:19:18;;;;;;;11.70;6.75;;;13.60;99.90;;;;;;5005604;28;20042;-87
2023/05/05 08:21:43;;;;;;;14.60;6.95;;;13.60;99.90;;;;;;5005344;28;20044;-84
2023/05/05 08:24:09;;;;;;;13.07;8.27;;;13.70;99.90;;;;;;5004922;28;20050;-85
2023/05/05 08:26:34;;;;;;;11.20;7.25;;;13.70;99.90;;;;;;5005112;28;20034;-87
2023/05/05 08:29:00;;;;;;;13.05;7.05;;;13.80;99.90;;;;;;5004532;28;20042;-86
2023/05/05 08:31:27;;;;;;;11.30;7.18;;;13.80;99.90;;;;;;5003473;28;20042;-86
2023/05/05 08:33:53;;;;;;;12.27;6.95;;;13.80;99.90;;;;;;5004970;28;20266;-84
2023/05/05 08:36:19;;;;;;;15.02;7.00;;;13.90;99.90;;;;;;5005451;28;20057;-85
2023/05/05 08:38:45;;;;;;;13.43;7.88;;;13.90;99.90;;;;;;4986731;28;20044;-86
2023/05/05 08:41:13;;;;;;;15.30;7.68;;;14.00;99.90;;;;;;5005434;28;20042;-86
2023/05/05 08:43:38;;;;;;;14.23;7.97;;;14.00;99.90;;;;;;5005371;28;20078;-85
2023/05/05 08:46:04;;;;;;;14.85;7.03;;;14.10;99.90;;;;;;5004472;28;20072;-85
2023/05/05 08:48:32;;;;;;;12.73;7.22;;;14.20;99.90;;;;;;5005452;28;20345;-85
2023/05/05 08:50:59;;;;;;;12.57;6.70;;;14.20;99.90;;;;;;5004603;28;20038;-87
2023/05/05 08:53:45;;;;;;;15.43;7.38;;;14.40;99.90;;;;;;5003356;28;20042;-85
2023/05/05 08:56:12;;;;;;;17.60;8.25;;;14.30;99.90;;;;;;5005509;28;20049;-85
2023/05/05 08:58:38;;;;;;;20.67;8.07;;;14.50;99.90;;;;;;5002902;28;20034;-86
2023/05/05 09:01:05;;;;;;;18.80;8.35;;;14.50;99.90;;;;;;5004953;28;20163;-84
2023/05/05 09:03:31;;;;;;;18.92;7.85;;;14.50;99.90;;;;;;5005065;28;20050;-86
2023/05/05 09:05:57;;;;;;;15.35;8.07;;;14.50;99.90;;;;;;5004516;28;20037;-86
2023/05/05 09:08:23;;;;;;;16.00;8.65;;;14.60;99.90;;;;;;5004419;28;20057;-84
2023/05/05 09:10:50;;;;;;;14.00;7.90;;;14.60;99.90;;;;;;5002522;28;20124;-86
2023/05/05 09:13:15;;;;;;;16.83;7.85;;;14.70;99.90;;;;;;5004753;28;20120;-84
2023/05/05 09:15:41;;;;;;;17.90;9.57;;;14.70;99.90;;;;;;5003737;28;20477;-86
2023/05/05 09:18:08;;;;;;;16.20;7.97;;;14.80;99.90;;;;;;5003800;28;20049;-84
2023/05/05 09:20:35;;;;;;;15.70;8.70;;;14.90;99.90;;;;;;5004800;28;20034;-84
2023/05/05 09:23:11;;;;;;;12.70;7.30;;;15.10;99.90;;;;;;5004486;28;20124;-84
2023/05/05 09:25:37;;;;;;;10.85;7.18;;;15.10;99.90;;;;;;5003125;28;20515;-86
2023/05/05 09:28:11;;;;;;;18.15;7.45;;;15.20;99.90;;;;;;5003995;28;20293;-84
2023/05/05 09:30:38;;;;;;;12.50;6.40;;;15.20;99.90;;;;;;5002651;28;20057;-85
2023/05/05 09:33:04;;;;;;;18.08;8.30;;;15.20;99.90;;;;;;5004419;28;20038;-85
2023/05/05 09:35:55;;;;;;;18.33;9.65;;;15.30;99.90;;;;;;5002676;28;20046;-86
2023/05/05 09:38:22;;;;;;;15.95;7.50;;;15.30;99.90;;;;;;5002777;28;20081;-86
2023/05/05 09:40:50;;;;;;;21.45;8.00;;;15.40;99.90;;;;;;5003103;28;20045;-84
2023/05/05 09:43:18;;;;;;;17.05;8.38;;;15.40;99.90;;;;;;5004367;28;20042;-88
2023/05/05 09:45:44;;;;;;;15.82;7.97;;;15.40;99.90;;;;;;5002684;28;20042;-87
2023/05/05 09:48:30;;;;;;;21.50;8.10;;;15.50;99.90;;;;;;5003996;28;20326;-85
2023/05/05 09:50:57;;;;;;;14.85;7.35;;;15.50;99.90;;;;;;5003546;28;20480;-84
2023/05/05 09:53:23;;;;;;;14.48;8.35;;;15.50;99.90;;;;;;5003499;28;20447;-86
2023/05/05 09:55:56;;;;;;;13.23;6.35;;;15.60;99.90;;;;;;5002559;28;20048;-85
2023/05/05 09:58:29;;;;;;;13.88;6.82;;;15.60;99.90;;;;;;5002504;28;20393;-84
2023/05/05 10:00:56;;;;;;;16.25;7.05;;;15.60;99.90;;;;;;5002441;28;20042;-83
2023/05/05 10:03:23;;;;;;;11.50;7.18;;;15.60;99.90;;;;;;5002195;28;20076;-85
2023/05/05 10:05:56;;;;;;;9.80;4.78;;;15.70;99.90;;;;;;5000887;28;20129;-82
2023/05/05 10:08:28;;;;;;;8.75;4.13;;;15.70;99.90;;;;;;5000485;28;20058;-82
2023/05/05 10:10:55;;;;;;;8.57;4.15;;;15.80;99.90;;;;;;5002651;28;20319;-81
2023/05/05 10:13:22;;;;;;;10.02;4.00;;;15.70;99.90;;;;;;5000666;28;20046;-84
2023/05/05 10:15:50;;;;;;;9.63;4.57;;;15.80;99.90;;;;;;5000836;28;20045;-82
2023/05/05 10:18:20;;;;;;;11.80;4.93;;;15.90;99.90;;;;;;5003237;28;20046;-82
2023/05/05 10:20:51;;;;;;;7.38;3.58;;;15.90;99.90;;;;;;5000842;28;20073;-86
2023/05/05 10:23:19;;;;;;;5.75;3.38;;;16.00;99.90;;;;;;5001658;28;20120;-82
2023/05/05 10:26:04;;;;;;;7.35;3.42;;;16.00;99.90;;;;;;5000929;28;20075;-80
2023/05/05 10:28:42;;;;;;;7.75;3.35;;;16.10;99.90;;;;;;5002565;28;20491;-83
2023/05/05 10:31:19;;;;;;;4.45;2.38;;;16.10;99.90;;;;;;5001947;28;20046;-83
2023/05/05 10:34:17;;;;;;;7.38;2.90;;;16.20;99.90;;;;;;5002302;28;20096;-83
2023/05/05 10:36:43;;;;;;;6.80;3.17;;;16.30;99.90;;;;;;4999581;28;20614;-86
2023/05/05 10:39:10;;;;;;;5.05;3.15;;;16.20;99.90;;;;;;5001187;28;20278;-80
2023/05/05 10:41:37;;;;;;;4.80;2.78;;;16.30;99.90;;;;;;5001895;28;20034;-84
2023/05/05 10:44:04;;;;;;;5.03;3.13;;;16.30;99.90;;;;;;5001317;28;20508;-83
2023/05/05 10:46:30;;;;;;;4.97;3.22;;;16.30;99.90;;;;;;5001991;28;20235;-82
2023/05/05 10:49:50;;;;;;;5.70;3.45;;;16.30;99.90;;;;;;5000235;28;20061;-88
2023/05/05 10:52:51;;;;;;;4.88;2.83;;;16.30;99.90;;;;;;4926466;29;20544;-84
2023/05/05 10:55:26;;;;;;;6.90;2.92;;;16.30;99.90;;;;;;5001957;28;20034;-87
2023/05/05 10:57:52;;;;;;;3.67;2.50;;;16.30;99.90;;;;;;5002711;28;20046;-87
2023/05/05 11:00:36;;;;;;;6.18;3.40;;;16.40;99.90;;;;;;5003521;28;20066;-86
2023/05/05 11:03:17;;;;;;;4.47;2.72;;;16.40;99.90;;;;;;5002829;28;20046;-87
2023/05/05 11:06:07;;;;;;;6.03;3.08;;;16.40;99.90;;;;;;5001334;28;20128;-83
2023/05/05 11:08:34;;;;;;;5.07;2.45;;;16.40;99.90;;;;;;5000558;28;20599;-87
2023/05/05 11:11:01;;;;;;;5.32;2.30;;;16.40;99.90;;;;;;5002308;28;20056;-88
2023/05/05 11:13:27;;;;;;;3.42;2.70;;;16.40;99.90;;;;;;5002719;28;20242;-84
2023/05/05 11:15:56;;;;;;;6.65;2.58;;;16.40;99.90;;;;;;5002414;28;20485;-87
2023/05/05 11:18:38;;;;;;;5.82;2.97;;;16.40;99.90;;;;;;5002993;28;20045;-83
2023/05/05 11:21:14;;;;;;;4.40;2.83;;;16.50;99.90;;;;;;5002667;28;20080;-85
2023/05/05 11:23:42;;;;;;;8.77;2.97;;;16.50;99.90;;;;;;5000668;28;20046;-83
2023/05/05 11:26:10;;;;;;;5.57;3.25;;;16.50;99.90;;;;;;5001289;28;20144;-79
2023/05/05 11:28:59;;;;;;;5.30;3.28;;;16.50;99.90;;;;;;5001146;28;20411;-83
2023/05/05 11:31:26;;;;;;;5.32;2.92;;;16.50;99.90;;;;;;5000034;28;20056;-83
2023/05/05 11:33:52;;;;;;;4.57;2.58;;;16.60;99.90;;;;;;5003608;28;20057;-86
2023/05/05 11:36:19;;;;;;;5.00;2.78;;;16.60;99.90;;;;;;5004648;28;20046;-82
2023/05/05 11:39:07;;;;;;;6.55;3.40;;;16.60;99.90;;;;;;5004087;28;20050;-81
2023/05/05 11:42:00;;;;;;;6.93;2.38;;;16.70;99.90;;;;;;5003521;28;20042;-87
2023/05/05 11:44:33;;;;;;;10.55;3.95;;;16.70;99.90;;;;;;5003933;28;20571;-85
2023/05/05 11:46:59;;;;;;;6.82;3.45;;;16.70;99.90;;;;;;5003213;28;20053;-87
2023/05/05 11:49:25;;;;;;;12.00;3.97;;;16.80;99.90;;;;;;5005705;28;20128;-87
2023/05/05 11:52:03;;;;;;;7.20;3.25;;;16.80;99.90;;;;;;5006548;28;20125;-82
2023/05/05 11:54:29;;;;;;;6.20;3.55;;;16.80;99.90;;;;;;5003515;28;20535;-86
2023/05/05 11:57:06;;;;;;;8.07;3.72;;;16.80;99.90;;;;;;5006007;28;20049;-87
2023/05/05 11:59:35;;;;;;;7.78;3.90;;;16.80;99.90;;;;;;5005011;28;20270;-84
2023/05/05 12:02:02;;;;;;;7.45;4.07;;;16.90;99.90;;;;;;5005348;28;20042;-87
2023/05/05 12:04:30;;;;;;;8.55;3.55;;;16.90;99.90;;;;;;5004757;28;20432;-81
2023/05/05 12:06:56;;;;;;;5.07;3.13;;;16.90;99.90;;;;;;5004681;28;20550;-84
2023/05/05 12:09:22;;;;;;;6.80;3.60;;;16.90;99.90;;;;;;5003314;28;20621;-86
2023/05/05 12:11:49;;;;;;;6.20;3.80;;;16.90;99.90;;;;;;5004174;28;20045;-83
2023/05/05 12:14:15;;;;;;;5.28;3.65;;;16.90;99.90;;;;;;5004057;28;20116;-82
2023/05/05 12:16:52;;;;;;;7.50;3.53;;;16.90;99.90;;;;;;5003749;28;20187;-85
2023/05/05 12:19:17;;;;;;;6.22;3.88;;;16.80;99.90;;;;;;5004087;28;20128;-87
2023/05/05 12:21:44;;;;;;;7.32;3.70;;;16.80;99.90;;;;;;5003029;28;20521;-85
2023/05/05 12:24:12;;;;;;;4.70;3.05;;;16.80;99.90;;;;;;5003164;28;20042;-86
2023/05/05 12:26:38;;;;;;;6.13;3.13;;;16.80;99.90;;;;;;5003379;28;20038;-86
2023/05/05 12:29:03;;;;;;;5.15;3.25;;;16.80;99.90;;;;;;5002228;28;20049;-81
2023/05/05 12:31:40;;;;;;;6.68;2.67;;;16.80;99.90;;;;;;5003886;28;20399;-85
2023/05/05 12:34:08;;;;;;;7.28;3.58;;;16.80;99.90;;;;;;5003839;28;20034;-85
2023/05/05 12:36:34;;;;;;;4.30;2.78;;;16.80;99.90;;;;;;5003257;28;20091;-84
2023/05/05 12:39:00;;;;;;;5.22;2.90;;;16.80;99.90;;;;;;5002803;28;20038;-82
2023/05/05 12:41:26;;;;;;;4.45;2.35;;;16.80;99.90;;;;;;4985851;28;20046;-86
2023/05/05 12:43:57;;;;;;;7.75;3.28;;;16.80;99.90;;;;;;5003833;28;20132;-80
2023/05/05 12:46:23;;;;;;;5.78;3.13;;;16.80;99.90;;;;;;5003735;28;20176;-84
2023/05/05 12:49:05;;;;;;;6.60;3.55;;;16.80;99.90;;;;;;5002948;28;20046;-87
2023/05/05 12:51:31;;;;;;;;;;;16.80;99.90;;;;;;5003879;28;20426;-82